sensor_id;sensor_type;location;lat;lon;timestamp;temperature;humidity
5419;DHT22;2732;52.092;11.556;2022-10-31T00:04:33;13.30;99.90
5419;DHT22;2732;52.092;11.556;2022-10-31T00:09:34;13.30;99.90
5419;DHT22;2732;52.092;11.556;2022-10-31T00:14:34;13.30;99.90
5419;DHT22;2732;52.092;11.556;2022-10-31T00:19:35;13.30;99.90
5419;DHT22;2732;52.092;11.556;2022-10-31T00:24:36;13.20;99.90
5419;DHT22;2732;52.092;11.556;2022-10-31T00:29:36;13.20;99.90
5419;DHT22;2732;52.092;11.556;2022-10-31T00:34:37;13.20;99.90
5419;DHT22;2732;52.092;11.556;2022-10-31T00:39:38;13.10;99.90
5419;DHT22;2732;52.092;11.556;2022-10-31T00:44:38;13.10;99.90
5419;DHT22;2732;52.092;11.556;2022-10-31T00:49:39;13.10;99.90
5419;DHT22;2732;52.092;11.556;2022-10-31T00:54:39;13.10;99.90
5419;DHT22;2732;52.092;11.556;2022-10-31T00:59:40;13.10;99.90
5419;DHT22;2732;52.092;11.556;2022-10-31T01:04:41;13.10;99.90
5419;DHT22;2732;52.092;11.556;2022-10-31T01:09:41;13.10;99.90
5419;DHT22;2732;52.092;11.556;2022-10-31T01:14:43;13.10;99.90
5419;DHT22;2732;52.092;11.556;2022-10-31T01:19:45;13.10;99.90
5419;DHT22;2732;52.092;11.556;2022-10-31T01:24:45;13.10;99.90
5419;DHT22;2732;52.092;11.556;2022-10-31T01:29:46;13.10;99.90
5419;DHT22;2732;52.092;11.556;2022-10-31T01:34:47;13.10;99.90
5419;DHT22;2732;52.092;11.556;2022-10-31T01:39:50;13.10;99.90
5419;DHT22;2732;52.092;11.556;2022-10-31T01:44:55;13.00;99.90
5419;DHT22;2732;52.092;11.556;2022-10-31T01:50:03;13.00;99.90
5419;DHT22;2732;52.092;11.556;2022-10-31T01:55:13;12.90;99.90
5419;DHT22;2732;52.092;11.556;2022-10-31T02:00:19;12.90;99.90
5419;DHT22;2732;52.092;11.556;2022-10-31T02:05:23;12.90;99.90
5419;DHT22;2732;52.092;11.556;2022-10-31T02:10:26;12.90;99.90
5419;DHT22;2732;52.092;11.556;2022-10-31T02:15:29;12.80;99.90
5419;DHT22;2732;52.092;11.556;2022-10-31T02:20:42;12.80;99.90
5419;DHT22;2732;52.092;11.556;2022-10-31T02:36:51;12.70;99.90
5419;DHT22;2732;52.092;11.556;2022-10-31T02:47:16;12.70;99.90
5419;DHT22;2732;52.092;11.556;2022-10-31T02:52:25;12.70;99.90
5419;DHT22;2732;52.092;11.556;2022-10-31T02:57:31;12.70;99.90
5419;DHT22;2732;52.092;11.556;2022-10-31T03:03:05;12.70;99.90
5419;DHT22;2732;52.092;11.556;2022-10-31T03:08:24;12.70;99.90
5419;DHT22;2732;52.092;11.556;2022-10-31T03:13:57;12.70;99.90
5419;DHT22;2732;52.092;11.556;2022-10-31T03:19:10;12.70;99.90
5419;DHT22;2732;52.092;11.556;2022-10-31T03:24:13;12.60;99.90
5419;DHT22;2732;52.092;11.556;2022-10-31T03:29:16;12.60;99.90
5419;DHT22;2732;52.092;11.556;2022-10-31T03:34:20;12.60;99.90
5419;DHT22;2732;52.092;11.556;2022-10-31T03:39:23;12.60;99.90
5419;DHT22;2732;52.092;11.556;2022-10-31T03:44:24;12.60;99.90
5419;DHT22;2732;52.092;11.556;2022-10-31T03:49:26;12.50;99.90
5419;DHT22;2732;52.092;11.556;2022-10-31T03:54:53;12.50;99.90
5419;DHT22;2732;52.092;11.556;2022-10-31T04:00:09;12.40;99.90
5419;DHT22;2732;52.092;11.556;2022-10-31T04:05:13;12.40;99.90
5419;DHT22;2732;52.092;11.556;2022-10-31T04:10:16;12.30;99.90
5419;DHT22;2732;52.092;11.556;2022-10-31T04:15:18;12.30;99.90
5419;DHT22;2732;52.092;11.556;2022-10-31T04:20:32;12.20;99.90
5419;DHT22;2732;52.092;11.556;2022-10-31T04:25:35;12.10;99.90
5419;DHT22;2732;52.092;11.556;2022-10-31T04:30:35;12.00;99.90
5419;DHT22;2732;52.092;11.556;2022-10-31T04:35:36;11.90;99.90
5419;DHT22;2732;52.092;11.556;2022-10-31T04:40:37;11.90;99.90
5419;DHT22;2732;52.092;11.556;2022-10-31T04:45:37;11.80;99.90
5419;DHT22;2732;52.092;11.556;2022-10-31T04:50:38;11.70;99.90
5419;DHT22;2732;52.092;11.556;2022-10-31T04:55:39;11.60;99.90
5419;DHT22;2732;52.092;11.556;2022-10-31T05:00:39;11.60;99.90
5419;DHT22;2732;52.092;11.556;2022-10-31T05:05:41;11.50;99.90
5419;DHT22;2732;52.092;11.556;2022-10-31T05:10:42;11.50;99.90
5419;DHT22;2732;52.092;11.556;2022-10-31T05:15:42;11.40;99.90
5419;DHT22;2732;52.092;11.556;2022-10-31T05:20:43;11.40;99.90
5419;DHT22;2732;52.092;11.556;2022-10-31T05:25:44;11.40;99.90
5419;DHT22;2732;52.092;11.556;2022-10-31T05:30:44;11.50;99.90
5419;DHT22;2732;52.092;11.556;2022-10-31T05:35:45;11.50;99.90
5419;DHT22;2732;52.092;11.556;2022-10-31T05:40:45;11.50;99.90
5419;DHT22;2732;52.092;11.556;2022-10-31T05:45:46;11.50;99.90
5419;DHT22;2732;52.092;11.556;2022-10-31T05:50:50;11.50;99.90
5419;DHT22;2732;52.092;11.556;2022-10-31T05:55:51;11.60;99.90
5419;DHT22;2732;52.092;11.556;2022-10-31T06:00:52;11.60;99.90
5419;DHT22;2732;52.092;11.556;2022-10-31T06:05:53;11.60;99.90
5419;DHT22;2732;52.092;11.556;2022-10-31T06:10:54;11.60;99.90
5419;DHT22;2732;52.092;11.556;2022-10-31T06:15:55;11.70;99.90
5419;DHT22;2732;52.092;11.556;2022-10-31T06:20:55;11.70;99.90
5419;DHT22;2732;52.092;11.556;2022-10-31T06:25:56;11.70;99.90
5419;DHT22;2732;52.092;11.556;2022-10-31T06:30:56;11.70;99.90
5419;DHT22;2732;52.092;11.556;2022-10-31T06:35:57;11.80;99.90
5419;DHT22;2732;52.092;11.556;2022-10-31T06:41:02;11.80;99.90
5419;DHT22;2732;52.092;11.556;2022-10-31T06:46:05;11.90;99.90
5419;DHT22;2732;52.092;11.556;2022-10-31T06:51:05;12.00;99.90
5419;DHT22;2732;52.092;11.556;2022-10-31T06:56:06;12.20;99.90
5419;DHT22;2732;52.092;11.556;2022-10-31T07:01:07;12.30;99.90
5419;DHT22;2732;52.092;11.556;2022-10-31T07:06:08;12.40;99.90
5419;DHT22;2732;52.092;11.556;2022-10-31T07:11:08;12.60;99.90
5419;DHT22;2732;52.092;11.556;2022-10-31T07:16:09;12.70;99.90
5419;DHT22;2732;52.092;11.556;2022-10-31T07:21:12;12.80;99.90
5419;DHT22;2732;52.092;11.556;2022-10-31T07:26:12;12.90;99.90
5419;DHT22;2732;52.092;11.556;2022-10-31T07:31:13;13.00;99.90
5419;DHT22;2732;52.092;11.556;2022-10-31T07:36:14;13.20;99.90
5419;DHT22;2732;52.092;11.556;2022-10-31T07:41:14;13.30;99.90
5419;DHT22;2732;52.092;11.556;2022-10-31T07:46:15;13.40;99.90
5419;DHT22;2732;52.092;11.556;2022-10-31T07:51:16;13.60;99.90
5419;DHT22;2732;52.092;11.556;2022-10-31T07:56:16;13.70;99.90
5419;DHT22;2732;52.092;11.556;2022-10-31T08:01:17;13.80;99.90
5419;DHT22;2732;52.092;11.556;2022-10-31T08:06:18;14.00;99.90
5419;DHT22;2732;52.092;11.556;2022-10-31T08:11:20;14.10;99.90
5419;DHT22;2732;52.092;11.556;2022-10-31T08:16:20;14.20;99.90
5419;DHT22;2732;52.092;11.556;2022-10-31T08:21:22;14.30;99.90
5419;DHT22;2732;52.092;11.556;2022-10-31T08:26:22;14.40;99.90
5419;DHT22;2732;52.092;11.556;2022-10-31T08:31:23;14.50;99.90
5419;DHT22;2732;52.092;11.556;2022-10-31T08:36:27;14.70;99.90
5419;DHT22;2732;52.092;11.556;2022-10-31T08:41:29;14.90;99.90
5419;DHT22;2732;52.092;11.556;2022-10-31T08:46:30;15.00;99.90
5419;DHT22;2732;52.092;11.556;2022-10-31T08:51:32;15.10;99.90
5419;DHT22;2732;52.092;11.556;2022-10-31T08:56:32;15.20;99.90
5419;DHT22;2732;52.092;11.556;2022-10-31T09:01:33;15.30;99.90
5419;DHT22;2732;52.092;11.556;2022-10-31T09:06:34;15.40;99.90
5419;DHT22;2732;52.092;11.556;2022-10-31T09:11:34;15.50;99.90
5419;DHT22;2732;52.092;11.556;2022-10-31T09:16:35;15.50;99.90
5419;DHT22;2732;52.092;11.556;2022-10-31T09:21:35;15.50;99.90
5419;DHT22;2732;52.092;11.556;2022-10-31T09:26:36;15.60;99.90
5419;DHT22;2732;52.092;11.556;2022-10-31T09:31:37;15.60;99.90
5419;DHT22;2732;52.092;11.556;2022-10-31T09:36:38;15.60;99.90
5419;DHT22;2732;52.092;11.556;2022-10-31T09:53:03;15.80;99.90
5419;DHT22;2732;52.092;11.556;2022-10-31T09:58:20;15.90;99.90
5419;DHT22;2732;52.092;11.556;2022-10-31T10:03:39;16.00;99.90
5419;DHT22;2732;52.092;11.556;2022-10-31T10:08:44;16.10;99.90
5419;DHT22;2732;52.092;11.556;2022-10-31T10:13:56;16.20;99.90
5419;DHT22;2732;52.092;11.556;2022-10-31T10:30:26;16.60;99.90
5419;DHT22;2732;52.092;11.556;2022-10-31T10:35:38;16.60;99.90
5419;DHT22;2732;52.092;11.556;2022-10-31T10:40:42;16.60;99.90
5419;DHT22;2732;52.092;11.556;2022-10-31T10:45:44;16.60;99.90
5419;DHT22;2732;52.092;11.556;2022-10-31T10:51:21;16.60;99.90
5419;DHT22;2732;52.092;11.556;2022-10-31T11:01:30;16.70;99.90
5419;DHT22;2732;52.092;11.556;2022-10-31T11:06:30;16.80;99.90
5419;DHT22;2732;52.092;11.556;2022-10-31T11:11:32;16.80;99.90
5419;DHT22;2732;52.092;11.556;2022-10-31T11:16:36;16.80;99.90
5419;DHT22;2732;52.092;11.556;2022-10-31T11:21:42;16.90;99.90
5419;DHT22;2732;52.092;11.556;2022-10-31T11:26:47;16.90;99.90
5419;DHT22;2732;52.092;11.556;2022-10-31T11:31:52;16.90;99.90
5419;DHT22;2732;52.092;11.556;2022-10-31T11:36:53;17.00;99.90
5419;DHT22;2732;52.092;11.556;2022-10-31T11:41:58;17.00;99.90
5419;DHT22;2732;52.092;11.556;2022-10-31T11:47:03;17.10;99.90
5419;DHT22;2732;52.092;11.556;2022-10-31T11:52:13;17.20;99.90
5419;DHT22;2732;52.092;11.556;2022-10-31T11:57:27;17.20;99.90
5419;DHT22;2732;52.092;11.556;2022-10-31T12:02:30;17.30;99.90
5419;DHT22;2732;52.092;11.556;2022-10-31T12:07:31;17.40;99.90
5419;DHT22;2732;52.092;11.556;2022-10-31T12:34:32;17.50;99.90
5419;DHT22;2732;52.092;11.556;2022-10-31T12:56:35;17.40;99.90
5419;DHT22;2732;52.092;11.556;2022-10-31T13:01:50;17.40;99.90
5419;DHT22;2732;52.092;11.556;2022-10-31T13:06:58;17.30;99.90
5419;DHT22;2732;52.092;11.556;2022-10-31T13:12:07;17.20;99.90
5419;DHT22;2732;52.092;11.556;2022-10-31T13:17:24;17.20;99.90
5419;DHT22;2732;52.092;11.556;2022-10-31T13:22:31;17.10;99.90
5419;DHT22;2732;52.092;11.556;2022-10-31T13:33:00;17.00;99.90
5419;DHT22;2732;52.092;11.556;2022-10-31T13:38:53;17.00;99.90
5419;DHT22;2732;52.092;11.556;2022-10-31T13:54:36;16.90;99.90
5419;DHT22;2732;52.092;11.556;2022-10-31T13:59:37;16.80;99.90
5419;DHT22;2732;52.092;11.556;2022-10-31T14:20:44;16.60;99.90
5419;DHT22;2732;52.092;11.556;2022-10-31T14:25:46;16.60;99.90
5419;DHT22;2732;52.092;11.556;2022-10-31T14:30:55;16.50;99.90
5419;DHT22;2732;52.092;11.556;2022-10-31T14:36:26;16.40;99.90
5419;DHT22;2732;52.092;11.556;2022-10-31T14:41:51;16.40;99.90
5419;DHT22;2732;52.092;11.556;2022-10-31T14:52:37;16.30;99.90
5419;DHT22;2732;52.092;11.556;2022-10-31T14:58:04;16.20;99.90
5419;DHT22;2732;52.092;11.556;2022-10-31T15:03:06;16.20;99.90
5419;DHT22;2732;52.092;11.556;2022-10-31T15:08:38;16.10;99.90
5419;DHT22;2732;52.092;11.556;2022-10-31T15:19:03;15.90;99.90
5419;DHT22;2732;52.092;11.556;2022-10-31T15:24:05;15.90;99.90
5419;DHT22;2732;52.092;11.556;2022-10-31T15:29:15;15.80;99.90
5419;DHT22;2732;52.092;11.556;2022-10-31T15:34:35;15.70;99.90
5419;DHT22;2732;52.092;11.556;2022-10-31T15:39:38;15.70;99.90
5419;DHT22;2732;52.092;11.556;2022-10-31T15:44:41;15.60;99.90
5419;DHT22;2732;52.092;11.556;2022-10-31T15:49:54;15.60;99.90
5419;DHT22;2732;52.092;11.556;2022-10-31T15:55:16;15.60;99.90
5419;DHT22;2732;52.092;11.556;2022-10-31T16:00:37;15.50;99.90
5419;DHT22;2732;52.092;11.556;2022-10-31T16:10:46;15.40;99.90
5419;DHT22;2732;52.092;11.556;2022-10-31T16:15:54;15.40;99.90
5419;DHT22;2732;52.092;11.556;2022-10-31T16:20:57;15.30;99.90
5419;DHT22;2732;52.092;11.556;2022-10-31T16:25:58;15.30;99.90
5419;DHT22;2732;52.092;11.556;2022-10-31T16:30:59;15.30;99.90
5419;DHT22;2732;52.092;11.556;2022-10-31T16:36:00;15.30;99.90
5419;DHT22;2732;52.092;11.556;2022-10-31T16:41:03;15.20;99.90
5419;DHT22;2732;52.092;11.556;2022-10-31T16:46:04;15.20;99.90
5419;DHT22;2732;52.092;11.556;2022-10-31T16:51:09;15.20;99.90
5419;DHT22;2732;52.092;11.556;2022-10-31T16:56:31;15.10;99.90
5419;DHT22;2732;52.092;11.556;2022-10-31T17:01:34;15.10;99.90
5419;DHT22;2732;52.092;11.556;2022-10-31T17:06:35;15.10;99.90
5419;DHT22;2732;52.092;11.556;2022-10-31T17:11:38;15.10;99.90
5419;DHT22;2732;52.092;11.556;2022-10-31T17:16:41;15.00;99.90
5419;DHT22;2732;52.092;11.556;2022-10-31T17:21:42;15.00;99.90
5419;DHT22;2732;52.092;11.556;2022-10-31T17:26:43;15.00;99.90
5419;DHT22;2732;52.092;11.556;2022-10-31T17:31:44;15.00;99.90
5419;DHT22;2732;52.092;11.556;2022-10-31T17:36:49;14.90;99.90
5419;DHT22;2732;52.092;11.556;2022-10-31T17:41:51;14.90;99.90
5419;DHT22;2732;52.092;11.556;2022-10-31T17:46:52;14.90;99.90
5419;DHT22;2732;52.092;11.556;2022-10-31T17:51:52;14.90;99.90
5419;DHT22;2732;52.092;11.556;2022-10-31T17:56:53;14.90;99.90
5419;DHT22;2732;52.092;11.556;2022-10-31T18:01:55;14.80;99.90
5419;DHT22;2732;52.092;11.556;2022-10-31T18:06:56;14.80;99.90
5419;DHT22;2732;52.092;11.556;2022-10-31T18:11:57;14.80;99.90
5419;DHT22;2732;52.092;11.556;2022-10-31T18:16:57;14.80;99.90
5419;DHT22;2732;52.092;11.556;2022-10-31T18:21:58;14.80;99.90
5419;DHT22;2732;52.092;11.556;2022-10-31T18:26:59;14.80;99.90
5419;DHT22;2732;52.092;11.556;2022-10-31T18:31:59;14.70;99.90
5419;DHT22;2732;52.092;11.556;2022-10-31T18:37:00;14.70;99.90
5419;DHT22;2732;52.092;11.556;2022-10-31T18:42:01;14.70;99.90
5419;DHT22;2732;52.092;11.556;2022-10-31T18:47:01;14.60;99.90
5419;DHT22;2732;52.092;11.556;2022-10-31T18:52:03;14.60;99.90
5419;DHT22;2732;52.092;11.556;2022-10-31T18:57:04;14.60;99.90
5419;DHT22;2732;52.092;11.556;2022-10-31T19:02:05;14.60;99.90
5419;DHT22;2732;52.092;11.556;2022-10-31T19:07:06;14.50;99.90
5419;DHT22;2732;52.092;11.556;2022-10-31T19:12:06;14.50;99.90
5419;DHT22;2732;52.092;11.556;2022-10-31T19:17:07;14.50;99.90
5419;DHT22;2732;52.092;11.556;2022-10-31T19:22:08;14.50;99.90
5419;DHT22;2732;52.092;11.556;2022-10-31T19:27:09;14.40;99.90
5419;DHT22;2732;52.092;11.556;2022-10-31T19:32:10;14.40;99.90
5419;DHT22;2732;52.092;11.556;2022-10-31T19:37:10;14.40;99.90
5419;DHT22;2732;52.092;11.556;2022-10-31T19:42:11;14.40;99.90
5419;DHT22;2732;52.092;11.556;2022-10-31T19:47:12;14.40;99.90
5419;DHT22;2732;52.092;11.556;2022-10-31T19:52:12;14.40;99.90
5419;DHT22;2732;52.092;11.556;2022-10-31T19:57:13;14.30;99.90
5419;DHT22;2732;52.092;11.556;2022-10-31T20:02:13;14.30;99.90
5419;DHT22;2732;52.092;11.556;2022-10-31T20:07:19;14.30;99.90
5419;DHT22;2732;52.092;11.556;2022-10-31T20:12:19;14.30;99.90
5419;DHT22;2732;52.092;11.556;2022-10-31T20:17:20;14.30;99.90
5419;DHT22;2732;52.092;11.556;2022-10-31T20:22:21;14.30;99.90
5419;DHT22;2732;52.092;11.556;2022-10-31T20:27:21;14.20;99.90
5419;DHT22;2732;52.092;11.556;2022-10-31T20:32:22;14.20;99.90
5419;DHT22;2732;52.092;11.556;2022-10-31T20:37:23;14.20;99.90
5419;DHT22;2732;52.092;11.556;2022-10-31T20:42:24;14.20;99.90
5419;DHT22;2732;52.092;11.556;2022-10-31T20:47:24;14.20;99.90
5419;DHT22;2732;52.092;11.556;2022-10-31T20:52:25;14.20;99.90
5419;DHT22;2732;52.092;11.556;2022-10-31T20:57:26;14.10;99.90
5419;DHT22;2732;52.092;11.556;2022-10-31T21:02:26;14.10;99.90
5419;DHT22;2732;52.092;11.556;2022-10-31T21:07:29;14.10;99.90
5419;DHT22;2732;52.092;11.556;2022-10-31T21:12:30;14.10;99.90
5419;DHT22;2732;52.092;11.556;2022-10-31T21:17:31;14.10;99.90
5419;DHT22;2732;52.092;11.556;2022-10-31T21:22:32;14.10;99.90
5419;DHT22;2732;52.092;11.556;2022-10-31T21:27:33;14.10;99.90
5419;DHT22;2732;52.092;11.556;2022-10-31T21:32:34;14.10;99.90
5419;DHT22;2732;52.092;11.556;2022-10-31T21:37:34;14.00;99.90
5419;DHT22;2732;52.092;11.556;2022-10-31T21:42:35;14.00;99.90
5419;DHT22;2732;52.092;11.556;2022-10-31T21:47:36;14.00;99.90
5419;DHT22;2732;52.092;11.556;2022-10-31T21:52:36;14.00;99.90
5419;DHT22;2732;52.092;11.556;2022-10-31T21:57:37;14.00;99.90
5419;DHT22;2732;52.092;11.556;2022-10-31T22:02:38;14.00;99.90
5419;DHT22;2732;52.092;11.556;2022-10-31T22:07:38;14.00;99.90
5419;DHT22;2732;52.092;11.556;2022-10-31T22:12:39;13.90;99.90
5419;DHT22;2732;52.092;11.556;2022-10-31T22:17:40;13.90;99.90
5419;DHT22;2732;52.092;11.556;2022-10-31T22:22:40;13.90;99.90
5419;DHT22;2732;52.092;11.556;2022-10-31T22:27:41;13.80;99.90
5419;DHT22;2732;52.092;11.556;2022-10-31T22:32:42;13.80;99.90
5419;DHT22;2732;52.092;11.556;2022-10-31T22:37:42;13.80;99.90
5419;DHT22;2732;52.092;11.556;2022-10-31T22:42:43;13.80;99.90
5419;DHT22;2732;52.092;11.556;2022-10-31T22:47:44;13.80;99.90
5419;DHT22;2732;52.092;11.556;2022-10-31T22:52:44;13.70;99.90
5419;DHT22;2732;52.092;11.556;2022-10-31T22:57:45;13.70;99.90
5419;DHT22;2732;52.092;11.556;2022-10-31T23:02:46;13.70;99.90
5419;DHT22;2732;52.092;11.556;2022-10-31T23:07:46;13.60;99.90
5419;DHT22;2732;52.092;11.556;2022-10-31T23:12:47;13.60;99.90
5419;DHT22;2732;52.092;11.556;2022-10-31T23:18:06;13.60;99.90
5419;DHT22;2732;52.092;11.556;2022-10-31T23:23:06;13.50;99.90
5419;DHT22;2732;52.092;11.556;2022-10-31T23:28:07;13.50;99.90
5419;DHT22;2732;52.092;11.556;2022-10-31T23:33:08;13.50;99.90
5419;DHT22;2732;52.092;11.556;2022-10-31T23:38:08;13.40;99.90
5419;DHT22;2732;52.092;11.556;2022-10-31T23:43:09;13.40;99.90
5419;DHT22;2732;52.092;11.556;2022-10-31T23:48:10;13.40;99.90
5419;DHT22;2732;52.092;11.556;2022-10-31T23:53:11;13.40;99.90
5419;DHT22;2732;52.092;11.556;2022-10-31T23:58:11;13.40;99.90
